createdAt,value
2022-08-16T00:01:33.844Z,100.00
2022-08-16T00:04:05.151Z,100.00
2022-08-16T00:06:41.526Z,100.00
2022-08-16T00:09:14.173Z,100.00
2022-08-16T00:11:43.497Z,100.00
2022-08-16T00:14:19.114Z,100.00
2022-08-16T00:17:05.855Z,100.00
2022-08-16T00:19:42.270Z,100.00
2022-08-16T00:22:13.743Z,100.00
2022-08-16T00:24:44.592Z,100.00
2022-08-16T00:27:12.327Z,100.00
2022-08-16T00:29:39.775Z,100.00
2022-08-16T00:32:12.065Z,100.00
2022-08-16T00:34:52.956Z,100.00
2022-08-16T00:37:25.146Z,100.00
2022-08-16T00:40:33.548Z,100.00
2022-08-16T00:43:06.106Z,100.00
2022-08-16T00:46:33.224Z,100.00
2022-08-16T00:48:55.972Z,100.00
2022-08-16T00:51:25.521Z,100.00
2022-08-16T00:54:01.473Z,100.00
2022-08-16T00:56:58.419Z,100.00
2022-08-16T00:59:25.954Z,100.00
2022-08-16T01:01:53.620Z,100.00
2022-08-16T01:04:30.528Z,100.00
2022-08-16T01:07:02.290Z,100.00
2022-08-16T01:09:37.346Z,100.00
2022-08-16T01:12:10.805Z,100.00
2022-08-16T01:14:54.403Z,100.00
2022-08-16T01:17:24.260Z,100.00
2022-08-16T01:19:59.095Z,100.00
2022-08-16T01:22:50.231Z,100.00
2022-08-16T01:25:34.564Z,100.00
2022-08-16T01:28:09.564Z,100.00
2022-08-16T01:30:49.781Z,100.00
2022-08-16T01:33:20.025Z,100.00
2022-08-16T01:35:56.890Z,100.00
2022-08-16T01:38:28.675Z,100.00
2022-08-16T01:41:01.869Z,100.00
2022-08-16T01:43:31.788Z,100.00
2022-08-16T01:46:29.897Z,100.00
2022-08-16T01:49:16.920Z,100.00
2022-08-16T01:51:55.190Z,100.00
2022-08-16T01:54:34.658Z,100.00
2022-08-16T01:57:05.884Z,100.00
2022-08-16T01:59:35.683Z,100.00
2022-08-16T02:02:22.098Z,100.00
2022-08-16T02:04:55.976Z,100.00
2022-08-16T02:07:25.813Z,100.00
2022-08-16T02:09:58.638Z,100.00
2022-08-16T02:12:50.125Z,100.00
2022-08-16T02:15:25.372Z,100.00
2022-08-16T02:17:56.277Z,100.00
2022-08-16T02:20:26.353Z,100.00
2022-08-16T02:23:01.618Z,100.00
2022-08-16T02:25:52.315Z,100.00
2022-08-16T02:28:25.476Z,100.00
2022-08-16T02:30:58.253Z,100.00
2022-08-16T02:33:42.925Z,100.00
2022-08-16T02:36:42.215Z,100.00
2022-08-16T02:39:08.868Z,100.00
2022-08-16T02:41:40.258Z,100.00
2022-08-16T02:44:13.825Z,100.00
2022-08-16T02:46:50.344Z,100.00
2022-08-16T02:49:20.829Z,100.00
2022-08-16T02:51:48.938Z,100.00
2022-08-16T02:54:17.700Z,100.00
2022-08-16T02:56:47.874Z,100.00
2022-08-16T02:59:17.967Z,100.00
2022-08-16T03:01:50.493Z,100.00
2022-08-16T03:04:48.788Z,100.00
2022-08-16T03:07:14.946Z,100.00
2022-08-16T03:09:45.731Z,100.00
2022-08-16T03:12:20.034Z,100.00
2022-08-16T03:14:48.795Z,100.00
2022-08-16T03:17:18.960Z,100.00
2022-08-16T03:19:59.925Z,100.00
2022-08-16T03:22:34.881Z,100.00
2022-08-16T03:25:12.142Z,100.00
2022-08-16T03:27:52.104Z,100.00
2022-08-16T03:30:28.825Z,100.00
2022-08-16T03:32:59.716Z,100.00
2022-08-16T03:35:36.484Z,100.00
2022-08-16T03:38:33.133Z,100.00
2022-08-16T03:41:25.760Z,100.00
2022-08-16T03:43:59.451Z,100.00
2022-08-16T03:46:44.933Z,100.00
2022-08-16T03:49:36.571Z,100.00
2022-08-16T03:52:10.970Z,100.00
2022-08-16T03:54:53.051Z,100.00
2022-08-16T03:57:21.708Z,100.00
2022-08-16T03:59:51.348Z,100.00
2022-08-16T04:02:22.293Z,100.00
2022-08-16T04:04:58.104Z,100.00
2022-08-16T04:07:36.374Z,100.00
2022-08-16T04:10:36.704Z,100.00
2022-08-16T04:13:04.139Z,100.00
2022-08-16T04:15:36.514Z,100.00
2022-08-16T04:18:17.746Z,100.00
2022-08-16T04:26:59.813Z,100.00
2022-08-16T04:29:43.683Z,100.00
2022-08-16T04:32:14.005Z,100.00
2022-08-16T04:34:44.350Z,100.00
2022-08-16T04:37:42.177Z,100.00
2022-08-16T04:40:37.352Z,100.00
2022-08-16T04:47:01.507Z,100.00
2022-08-16T04:49:46.144Z,100.00
2022-08-16T04:52:34.562Z,100.00
2022-08-16T04:55:15.958Z,100.00
2022-08-16T04:58:44.562Z,100.00
2022-08-16T05:01:02.518Z,100.00
2022-08-16T05:03:41.721Z,100.00
2022-08-16T05:06:18.993Z,100.00
2022-08-16T05:08:49.428Z,100.00
2022-08-16T05:11:33.337Z,100.00
2022-08-16T05:14:08.221Z,100.00
2022-08-16T05:16:46.592Z,100.00
2022-08-16T05:19:22.595Z,100.00
2022-08-16T05:22:17.492Z,100.00
2022-08-16T05:31:35.792Z,100.00
2022-08-16T05:34:33.758Z,100.00
2022-08-16T05:40:21.131Z,100.00
2022-08-16T05:43:26.123Z,100.00
2022-08-16T05:46:30.109Z,100.00
2022-08-16T05:49:16.344Z,100.00
2022-08-16T05:52:13.607Z,100.00
2022-08-16T05:55:00.934Z,100.00
2022-08-16T06:00:36.736Z,100.00
2022-08-16T06:03:29.577Z,100.00
2022-08-16T06:06:08.492Z,100.00
2022-08-16T06:08:42.045Z,100.00
2022-08-16T06:11:19.464Z,100.00
2022-08-16T06:13:55.381Z,100.00
2022-08-16T06:16:50.982Z,100.00
2022-08-16T06:19:23.680Z,100.00
2022-08-16T06:22:37.144Z,100.00
2022-08-16T06:25:07.577Z,100.00
2022-08-16T06:27:42.312Z,100.00
2022-08-16T06:30:34.170Z,100.00
2022-08-16T06:33:41.616Z,100.00
2022-08-16T06:36:14.172Z,100.00
2022-08-16T06:42:06.575Z,100.00
2022-08-16T06:45:00.987Z,100.00
2022-08-16T06:47:56.511Z,100.00
2022-08-16T06:50:32.841Z,100.00
2022-08-16T06:53:15.426Z,100.00
2022-08-16T06:56:14.857Z,100.00
2022-08-16T06:59:05.613Z,100.00
2022-08-16T07:01:54.403Z,100.00
2022-08-16T07:04:33.199Z,100.00
2022-08-16T07:07:17.748Z,100.00
2022-08-16T07:09:51.372Z,100.00
2022-08-16T07:12:23.704Z,100.00
2022-08-16T07:15:26.556Z,100.00
2022-08-16T07:18:01.466Z,100.00
2022-08-16T07:20:47.629Z,100.00
2022-08-16T07:23:21.082Z,100.00
2022-08-16T07:26:24.420Z,100.00
2022-08-16T07:28:55.865Z,100.00
2022-08-16T07:31:37.864Z,100.00
2022-08-16T07:34:12.912Z,100.00
2022-08-16T07:36:51.340Z,100.00
2022-08-16T07:39:43.140Z,100.00
2022-08-16T07:42:25.907Z,100.00
2022-08-16T07:45:10.435Z,100.00
2022-08-16T07:47:58.761Z,100.00
2022-08-16T07:50:56.186Z,100.00
2022-08-16T07:53:19.808Z,100.00
2022-08-16T07:55:55.201Z,100.00
2022-08-16T07:58:36.463Z,100.00
2022-08-16T08:01:16.593Z,100.00
2022-08-16T08:07:08.934Z,100.00
2022-08-16T08:09:44.867Z,100.00
2022-08-16T08:12:32.336Z,100.00
2022-08-16T08:15:10.193Z,100.00
2022-08-16T08:17:44.811Z,100.00
2022-08-16T08:20:28.344Z,100.00
2022-08-16T08:23:01.230Z,100.00
2022-08-16T08:26:17.465Z,100.00
2022-08-16T08:28:48.110Z,100.00
2022-08-16T08:31:18.550Z,100.00
2022-08-16T08:33:51.550Z,100.00
2022-08-16T08:36:41.309Z,100.00
2022-08-16T08:39:27.640Z,100.00
2022-08-16T08:45:01.261Z,100.00
2022-08-16T08:47:32.010Z,100.00
2022-08-16T08:50:07.985Z,100.00
2022-08-16T08:52:57.690Z,100.00
2022-08-16T08:55:31.478Z,100.00
2022-08-16T08:58:02.557Z,100.00
2022-08-16T09:03:49.707Z,100.00
2022-08-16T09:06:28.579Z,100.00
2022-08-16T09:09:09.965Z,100.00
2022-08-16T09:12:35.729Z,100.00
2022-08-16T09:15:44.840Z,100.00
2022-08-16T09:21:44.017Z,100.00
2022-08-16T09:24:52.607Z,100.00
2022-08-16T09:27:30.248Z,100.00
2022-08-16T09:30:33.409Z,100.00
2022-08-16T09:33:18.089Z,100.00
2022-08-16T09:35:53.863Z,100.00
2022-08-16T09:38:31.881Z,100.00
2022-08-16T09:41:14.556Z,100.00
2022-08-16T09:43:59.435Z,100.00
2022-08-16T09:46:44.714Z,100.00
2022-08-16T09:49:36.773Z,100.00
2022-08-16T09:52:11.275Z,100.00
2022-08-16T09:54:50.820Z,100.00
2022-08-16T09:57:18.839Z,100.00
2022-08-16T09:59:59.922Z,100.00
2022-08-16T10:05:45.449Z,100.00
2022-08-16T10:08:31.429Z,100.00
2022-08-16T10:11:27.275Z,100.00
2022-08-16T10:14:05.222Z,100.00
2022-08-16T10:16:39.690Z,100.00
2022-08-16T10:19:15.601Z,100.00
2022-08-16T10:21:56.742Z,100.00
2022-08-16T10:24:29.405Z,100.00
2022-08-16T10:27:47.323Z,100.00
2022-08-16T10:30:40.053Z,100.00
2022-08-16T10:33:18.393Z,100.00
2022-08-16T10:35:52.465Z,100.00
2022-08-16T10:38:27.066Z,100.00
2022-08-16T10:41:00.949Z,100.00
2022-08-16T10:43:36.468Z,100.00
2022-08-16T10:46:39.800Z,100.00
2022-08-16T10:49:09.559Z,100.00
2022-08-16T10:58:34.500Z,100.00
2022-08-16T11:01:43.435Z,100.00
2022-08-16T11:05:04.731Z,100.00
2022-08-16T11:13:59.598Z,100.00
2022-08-16T11:17:12.718Z,100.00
2022-08-16T11:20:40.667Z,100.00
2022-08-16T11:22:52.350Z,100.00
2022-08-16T11:29:11.902Z,100.00
2022-08-16T11:31:13.547Z,100.00
2022-08-16T11:33:53.089Z,100.00
2022-08-16T11:36:37.584Z,100.00
2022-08-16T11:39:10.224Z,100.00
2022-08-16T11:41:53.249Z,100.00
2022-08-16T11:44:56.049Z,100.00
2022-08-16T11:47:32.661Z,100.00
2022-08-16T11:50:10.576Z,100.00
2022-08-16T11:52:59.541Z,99.73
2022-08-16T11:55:38.173Z,99.15
2022-08-16T11:58:16.428Z,99.05
2022-08-16T12:01:02.534Z,98.60
2022-08-16T12:03:41.846Z,98.44
2022-08-16T12:06:25.083Z,98.15
2022-08-16T12:10:46.567Z,98.31
2022-08-16T12:12:38.444Z,99.31
2022-08-16T12:15:09.903Z,100.00
2022-08-16T12:17:44.675Z,100.00
2022-08-16T12:20:26.015Z,100.00
2022-08-16T12:23:02.135Z,100.00
2022-08-16T12:25:37.071Z,100.00
2022-08-16T12:28:09.414Z,100.00
2022-08-16T12:31:17.053Z,100.00
2022-08-16T12:34:32.182Z,100.00
2022-08-16T12:37:47.570Z,100.00
2022-08-16T12:43:48.523Z,100.00
2022-08-16T12:47:10.735Z,100.00
2022-08-16T12:49:43.804Z,100.00
2022-08-16T12:52:33.244Z,100.00
2022-08-16T12:55:33.537Z,100.00
2022-08-16T12:58:48.637Z,100.00
2022-08-16T13:01:26.370Z,100.00
2022-08-16T13:04:47.855Z,100.00
2022-08-16T13:07:42.528Z,100.00
2022-08-16T13:13:56.934Z,100.00
2022-08-16T13:17:17.007Z,100.00
2022-08-16T13:20:11.365Z,100.00
2022-08-16T13:23:33.255Z,100.00
2022-08-16T13:26:53.328Z,100.00
2022-08-16T13:29:57.838Z,100.00
2022-08-16T13:36:49.801Z,100.00
2022-08-16T13:39:52.248Z,100.00
2022-08-16T13:45:58.288Z,100.00
2022-08-16T13:48:47.754Z,100.00
2022-08-16T13:51:30.765Z,100.00
2022-08-16T13:54:21.080Z,100.00
2022-08-16T13:56:52.857Z,100.00
2022-08-16T13:59:45.322Z,100.00
2022-08-16T14:08:45.161Z,100.00
2022-08-16T14:11:53.834Z,100.00
2022-08-16T14:18:21.327Z,100.00
2022-08-16T14:24:47.856Z,100.00
2022-08-16T14:27:42.912Z,100.00
2022-08-16T14:33:33.872Z,100.00
2022-08-16T14:36:31.759Z,100.00
2022-08-16T14:39:39.454Z,100.00
2022-08-16T14:42:58.077Z,100.00
2022-08-16T14:46:00.966Z,100.00
2022-08-16T14:55:04.003Z,100.00
2022-08-16T14:58:01.254Z,100.00
2022-08-16T15:00:38.345Z,100.00
2022-08-16T15:03:12.712Z,100.00
2022-08-16T15:05:48.532Z,100.00
2022-08-16T15:14:51.248Z,100.00
2022-08-16T15:17:54.111Z,100.00
2022-08-16T15:20:38.611Z,100.00
2022-08-16T15:23:21.091Z,100.00
2022-08-16T15:26:18.848Z,100.00
2022-08-16T15:29:10.420Z,100.00
2022-08-16T15:31:49.496Z,100.00
2022-08-16T15:34:31.560Z,100.00
2022-08-16T15:37:11.239Z,100.00
2022-08-16T15:39:48.613Z,100.00
2022-08-16T15:42:28.714Z,100.00
2022-08-16T15:45:02.313Z,100.00
2022-08-16T15:48:08.467Z,100.00
2022-08-16T15:50:39.411Z,100.00
2022-08-16T15:53:21.405Z,100.00
2022-08-16T15:56:03.762Z,100.00
2022-08-16T15:58:43.277Z,100.00
2022-08-16T16:01:11.750Z,100.00
2022-08-16T16:03:41.518Z,100.00
2022-08-16T16:06:09.402Z,100.00
2022-08-16T16:08:42.474Z,100.00
2022-08-16T16:11:10.448Z,100.00
2022-08-16T16:13:43.155Z,100.00
2022-08-16T16:16:19.616Z,100.00
2022-08-16T16:18:48.728Z,99.76
2022-08-16T16:21:20.591Z,99.37
2022-08-16T16:23:55.102Z,99.14
2022-08-16T16:26:32.140Z,98.83
2022-08-16T16:29:08.715Z,98.40
2022-08-16T16:31:59.451Z,97.98
2022-08-16T16:34:35.416Z,97.01
2022-08-16T16:37:09.992Z,95.88
2022-08-16T16:39:43.937Z,96.27
2022-08-16T16:42:29.531Z,96.01
2022-08-16T16:45:01.716Z,96.35
2022-08-16T16:47:45.531Z,96.58
2022-08-16T16:50:33.238Z,97.31
2022-08-16T16:53:16.907Z,98.54
2022-08-16T16:55:52.091Z,99.37
2022-08-16T16:58:43.198Z,100.00
2022-08-16T17:01:13.661Z,100.00
2022-08-16T17:03:41.588Z,100.00
2022-08-16T17:06:11.171Z,100.00
2022-08-16T17:08:40.638Z,100.00
2022-08-16T17:11:12.323Z,100.00
2022-08-16T17:13:40.712Z,100.00
2022-08-16T17:16:18.974Z,100.00
2022-08-16T17:19:14.757Z,100.00
2022-08-16T17:21:40.053Z,100.00
2022-08-16T17:24:17.923Z,100.00
2022-08-16T17:26:55.909Z,100.00
2022-08-16T17:29:33.924Z,100.00
2022-08-16T17:32:02.520Z,100.00
2022-08-16T17:34:51.013Z,100.00
2022-08-16T17:37:22.115Z,100.00
2022-08-16T17:40:06.209Z,100.00
2022-08-16T17:42:48.180Z,100.00
2022-08-16T17:45:36.847Z,100.00
2022-08-16T17:48:08.666Z,100.00
2022-08-16T17:50:54.830Z,100.00
2022-08-16T17:53:23.492Z,100.00
2022-08-16T17:58:36.712Z,100.00
2022-08-16T18:01:08.191Z,100.00
2022-08-16T18:04:06.961Z,100.00
2022-08-16T18:06:30.106Z,100.00
2022-08-16T18:09:03.382Z,100.00
2022-08-16T18:11:34.142Z,100.00
2022-08-16T18:14:01.793Z,100.00
2022-08-16T18:16:28.983Z,100.00
2022-08-16T18:18:59.891Z,100.00
2022-08-16T18:21:46.316Z,100.00
2022-08-16T18:24:18.994Z,100.00
2022-08-16T18:26:46.904Z,100.00
2022-08-16T18:29:14.348Z,100.00
2022-08-16T18:31:43.109Z,100.00
2022-08-16T18:34:10.424Z,100.00
2022-08-16T18:36:41.144Z,100.00
2022-08-16T18:39:10.612Z,100.00
2022-08-16T18:41:40.612Z,100.00
2022-08-16T18:44:29.172Z,100.00
2022-08-16T18:47:11.655Z,100.00
2022-08-16T18:49:47.494Z,100.00
2022-08-16T18:52:25.766Z,100.00
2022-08-16T18:55:01.488Z,100.00
2022-08-16T18:57:42.545Z,100.00
2022-08-16T19:00:13.014Z,100.00
2022-08-16T19:02:58.560Z,100.00
2022-08-16T19:05:29.255Z,100.00
2022-08-16T19:07:58.747Z,100.00
2022-08-16T19:10:26.133Z,100.00
2022-08-16T19:13:26.440Z,100.00
2022-08-16T19:16:07.666Z,100.00
2022-08-16T19:18:36.547Z,100.00
2022-08-16T19:21:09.813Z,100.00
2022-08-16T19:23:40.702Z,100.00
2022-08-16T19:26:24.552Z,100.00
2022-08-16T19:29:01.880Z,100.00
2022-08-16T19:31:33.716Z,100.00
2022-08-16T19:34:05.980Z,100.00
2022-08-16T19:36:40.267Z,100.00
2022-08-16T19:39:32.737Z,100.00
2022-08-16T19:42:14.802Z,100.00
2022-08-16T19:44:48.149Z,100.00
2022-08-16T19:47:16.313Z,100.00
2022-08-16T19:49:50.256Z,100.00
2022-08-16T19:52:34.220Z,100.00
2022-08-16T19:55:05.759Z,100.00
2022-08-16T19:57:45.811Z,100.00
2022-08-16T20:00:18.835Z,100.00
2022-08-16T20:02:53.284Z,100.00
2022-08-16T20:05:30.464Z,100.00
2022-08-16T20:08:04.282Z,100.00
2022-08-16T20:10:36.287Z,100.00
2022-08-16T20:13:21.433Z,100.00
2022-08-16T20:16:01.080Z,100.00
2022-08-16T20:18:33.091Z,100.00
2022-08-16T20:21:00.558Z,100.00
2022-08-16T20:23:36.776Z,100.00
2022-08-16T20:26:20.486Z,100.00
2022-08-16T20:28:53.857Z,100.00
2022-08-16T20:31:26.253Z,100.00
2022-08-16T20:34:04.205Z,100.00
2022-08-16T20:36:38.693Z,100.00
2022-08-16T20:39:08.595Z,100.00
2022-08-16T20:41:50.086Z,100.00
2022-08-16T20:44:17.868Z,100.00
2022-08-16T20:46:52.689Z,100.00
2022-08-16T20:49:48.304Z,100.00
2022-08-16T20:52:35.220Z,100.00
2022-08-16T20:55:02.657Z,100.00
2022-08-16T20:57:42.486Z,100.00
2022-08-16T21:00:17.887Z,100.00
2022-08-16T21:03:17.653Z,100.00
2022-08-16T21:05:52.730Z,100.00
2022-08-16T21:08:52.132Z,100.00
2022-08-16T21:11:18.453Z,100.00
2022-08-16T21:13:47.708Z,100.00
2022-08-16T21:16:18.040Z,100.00
2022-08-16T21:18:46.671Z,100.00
2022-08-16T21:21:41.161Z,100.00
2022-08-16T21:24:18.435Z,100.00
2022-08-16T21:26:53.904Z,100.00
2022-08-16T21:29:39.856Z,100.00
2022-08-16T21:32:35.026Z,100.00
2022-08-16T21:35:11.654Z,100.00
2022-08-16T21:37:42.858Z,100.00
2022-08-16T21:40:32.790Z,100.00
2022-08-16T21:43:12.400Z,100.00
2022-08-16T21:45:51.973Z,100.00
2022-08-16T21:48:33.735Z,100.00
2022-08-16T21:51:15.636Z,100.00
2022-08-16T21:54:31.309Z,100.00
2022-08-16T21:57:07.425Z,100.00
2022-08-16T21:59:57.532Z,100.00
2022-08-16T22:02:38.795Z,100.00
2022-08-16T22:05:13.402Z,100.00
2022-08-16T22:07:46.171Z,100.00
2022-08-16T22:11:06.791Z,100.00
2022-08-16T22:13:22.691Z,100.00
2022-08-16T22:16:21.066Z,100.00
2022-08-16T22:19:01.552Z,100.00
2022-08-16T22:21:43.550Z,100.00
2022-08-16T22:24:24.479Z,100.00
2022-08-16T22:27:02.352Z,100.00
2022-08-16T22:29:32.098Z,100.00
2022-08-16T22:32:09.789Z,100.00
2022-08-16T22:34:47.551Z,100.00
2022-08-16T22:37:28.564Z,100.00
2022-08-16T22:40:05.041Z,100.00
2022-08-16T22:42:59.452Z,100.00
2022-08-16T22:45:35.797Z,100.00
2022-08-16T22:51:44.477Z,100.00
2022-08-16T22:54:45.951Z,100.00
2022-08-16T22:57:21.674Z,100.00
2022-08-16T23:00:01.269Z,100.00
2022-08-16T23:02:40.045Z,100.00
2022-08-16T23:05:13.588Z,100.00
2022-08-16T23:07:49.476Z,100.00
2022-08-16T23:10:23.157Z,100.00
2022-08-16T23:13:01.610Z,100.00
2022-08-16T23:15:37.601Z,100.00
2022-08-16T23:18:11.684Z,100.00
2022-08-16T23:20:53.643Z,100.00
2022-08-16T23:23:26.436Z,100.00
2022-08-16T23:25:59.274Z,100.00
2022-08-16T23:28:52.173Z,100.00
2022-08-16T23:31:21.849Z,100.00
2022-08-16T23:33:54.323Z,100.00
2022-08-16T23:36:21.480Z,100.00
2022-08-16T23:38:55.608Z,100.00
2022-08-16T23:41:23.785Z,100.00
2022-08-16T23:43:54.283Z,100.00
2022-08-16T23:46:27.409Z,100.00
2022-08-16T23:50:00.088Z,100.00
2022-08-16T23:51:56.092Z,100.00
2022-08-16T23:54:33.369Z,100.00
2022-08-16T23:57:09.968Z,100.00
2022-08-16T23:59:53.534Z,100.00
